sensor_id;sensor_type;location;lat;lon;timestamp;temperature;humidity
9305;DHT22;4690;52.422;13.486;2023-09-08T00:11:40;17.80;99.90
9305;DHT22;4690;52.422;13.486;2023-09-08T00:14:05;17.80;99.90
9305;DHT22;4690;52.422;13.486;2023-09-08T00:16:31;17.70;99.90
9305;DHT22;4690;52.422;13.486;2023-09-08T00:18:57;17.70;99.90
9305;DHT22;4690;52.422;13.486;2023-09-08T00:21:27;17.70;99.90
9305;DHT22;4690;52.422;13.486;2023-09-08T00:23:53;17.70;99.90
9305;DHT22;4690;52.422;13.486;2023-09-08T00:26:19;17.70;99.90
9305;DHT22;4690;52.422;13.486;2023-09-08T00:28:47;17.60;99.90
9305;DHT22;4690;52.422;13.486;2023-09-08T00:31:13;17.60;99.90
9305;DHT22;4690;52.422;13.486;2023-09-08T00:33:39;17.60;99.90
9305;DHT22;4690;52.422;13.486;2023-09-08T00:36:06;17.60;99.90
9305;DHT22;4690;52.422;13.486;2023-09-08T00:38:32;17.50;99.90
9305;DHT22;4690;52.422;13.486;2023-09-08T00:40:58;17.50;99.90
9305;DHT22;4690;52.422;13.486;2023-09-08T00:43:26;17.50;99.90
9305;DHT22;4690;52.422;13.486;2023-09-08T00:45:54;17.50;99.90
9305;DHT22;4690;52.422;13.486;2023-09-08T00:48:21;17.40;99.90
9305;DHT22;4690;52.422;13.486;2023-09-08T00:50:46;17.40;99.90
9305;DHT22;4690;52.422;13.486;2023-09-08T00:53:13;17.30;99.90
9305;DHT22;4690;52.422;13.486;2023-09-08T00:55:39;17.30;99.90
9305;DHT22;4690;52.422;13.486;2023-09-08T00:58:06;17.30;99.90
9305;DHT22;4690;52.422;13.486;2023-09-08T01:00:32;17.30;99.90
9305;DHT22;4690;52.422;13.486;2023-09-08T01:02:58;17.20;99.90
9305;DHT22;4690;52.422;13.486;2023-09-08T01:05:24;17.20;99.90
9305;DHT22;4690;52.422;13.486;2023-09-08T01:07:51;17.10;99.90
9305;DHT22;4690;52.422;13.486;2023-09-08T01:10:18;17.10;99.90
9305;DHT22;4690;52.422;13.486;2023-09-08T01:12:44;17.10;99.90
9305;DHT22;4690;52.422;13.486;2023-09-08T01:15:10;17.00;99.90
9305;DHT22;4690;52.422;13.486;2023-09-08T01:17:36;17.00;99.90
9305;DHT22;4690;52.422;13.486;2023-09-08T01:20:07;17.00;99.90
9305;DHT22;4690;52.422;13.486;2023-09-08T01:28:28;17.00;99.90
9305;DHT22;4690;52.422;13.486;2023-09-08T01:30:55;17.00;99.90
9305;DHT22;4690;52.422;13.486;2023-09-08T01:33:22;17.00;99.90
9305;DHT22;4690;52.422;13.486;2023-09-08T01:35:49;17.00;99.90
9305;DHT22;4690;52.422;13.486;2023-09-08T01:38:15;17.00;99.90
9305;DHT22;4690;52.422;13.486;2023-09-08T01:40:41;17.00;99.90
9305;DHT22;4690;52.422;13.486;2023-09-08T01:43:07;16.80;99.90
9305;DHT22;4690;52.422;13.486;2023-09-08T01:45:33;16.80;99.90
9305;DHT22;4690;52.422;13.486;2023-09-08T01:47:58;16.80;99.90
9305;DHT22;4690;52.422;13.486;2023-09-08T01:50:24;16.70;99.90
9305;DHT22;4690;52.422;13.486;2023-09-08T01:52:50;16.70;99.90
9305;DHT22;4690;52.422;13.486;2023-09-08T01:55:17;16.70;99.90
9305;DHT22;4690;52.422;13.486;2023-09-08T01:57:43;16.70;99.90
9305;DHT22;4690;52.422;13.486;2023-09-08T02:00:10;16.60;99.90
9305;DHT22;4690;52.422;13.486;2023-09-08T02:02:37;16.60;99.90
9305;DHT22;4690;52.422;13.486;2023-09-08T02:05:03;16.50;99.90
9305;DHT22;4690;52.422;13.486;2023-09-08T02:07:29;16.40;99.90
9305;DHT22;4690;52.422;13.486;2023-09-08T02:09:55;16.40;99.90
9305;DHT22;4690;52.422;13.486;2023-09-08T02:12:21;16.40;99.90
9305;DHT22;4690;52.422;13.486;2023-09-08T02:14:47;16.40;99.90
9305;DHT22;4690;52.422;13.486;2023-09-08T02:17:13;16.30;99.90
9305;DHT22;4690;52.422;13.486;2023-09-08T02:19:38;16.30;99.90
9305;DHT22;4690;52.422;13.486;2023-09-08T02:22:04;16.20;99.90
9305;DHT22;4690;52.422;13.486;2023-09-08T02:24:30;16.10;99.90
9305;DHT22;4690;52.422;13.486;2023-09-08T02:26:55;16.10;99.90
9305;DHT22;4690;52.422;13.486;2023-09-08T02:29:21;16.10;99.90
9305;DHT22;4690;52.422;13.486;2023-09-08T02:31:48;16.10;99.90
9305;DHT22;4690;52.422;13.486;2023-09-08T02:34:14;16.00;99.90
9305;DHT22;4690;52.422;13.486;2023-09-08T02:36:40;16.00;99.90
9305;DHT22;4690;52.422;13.486;2023-09-08T02:39:06;16.00;99.90
9305;DHT22;4690;52.422;13.486;2023-09-08T02:41:32;16.00;99.90
9305;DHT22;4690;52.422;13.486;2023-09-08T02:43:59;16.00;99.90
9305;DHT22;4690;52.422;13.486;2023-09-08T02:46:25;16.00;99.90
9305;DHT22;4690;52.422;13.486;2023-09-08T02:48:51;15.90;99.90
9305;DHT22;4690;52.422;13.486;2023-09-08T02:51:18;16.00;99.90
9305;DHT22;4690;52.422;13.486;2023-09-08T02:53:44;15.90;99.90
9305;DHT22;4690;52.422;13.486;2023-09-08T02:56:09;15.90;99.90
9305;DHT22;4690;52.422;13.486;2023-09-08T02:58:35;15.90;99.90
9305;DHT22;4690;52.422;13.486;2023-09-08T03:01:16;15.90;99.90
9305;DHT22;4690;52.422;13.486;2023-09-08T03:03:46;15.90;99.90
9305;DHT22;4690;52.422;13.486;2023-09-08T03:06:14;15.90;99.90
9305;DHT22;4690;52.422;13.486;2023-09-08T03:08:41;15.90;99.90
9305;DHT22;4690;52.422;13.486;2023-09-08T03:11:08;15.90;99.90
9305;DHT22;4690;52.422;13.486;2023-09-08T03:13:34;15.90;99.90
9305;DHT22;4690;52.422;13.486;2023-09-08T03:16:08;15.80;99.90
9305;DHT22;4690;52.422;13.486;2023-09-08T03:18:35;15.80;99.90
9305;DHT22;4690;52.422;13.486;2023-09-08T03:21:06;15.80;99.90
9305;DHT22;4690;52.422;13.486;2023-09-08T03:23:40;15.80;99.90
9305;DHT22;4690;52.422;13.486;2023-09-08T03:26:08;15.80;99.90
9305;DHT22;4690;52.422;13.486;2023-09-08T03:28:35;15.70;99.90
9305;DHT22;4690;52.422;13.486;2023-09-08T03:31:02;15.70;99.90
9305;DHT22;4690;52.422;13.486;2023-09-08T03:33:28;15.70;99.90
9305;DHT22;4690;52.422;13.486;2023-09-08T03:35:54;15.60;99.90
9305;DHT22;4690;52.422;13.486;2023-09-08T03:38:21;15.60;99.90
9305;DHT22;4690;52.422;13.486;2023-09-08T03:40:47;15.60;99.90
9305;DHT22;4690;52.422;13.486;2023-09-08T03:43:13;15.50;99.90
9305;DHT22;4690;52.422;13.486;2023-09-08T03:45:39;15.50;99.90
9305;DHT22;4690;52.422;13.486;2023-09-08T03:48:05;15.50;99.90
9305;DHT22;4690;52.422;13.486;2023-09-08T03:50:31;15.50;99.90
9305;DHT22;4690;52.422;13.486;2023-09-08T03:52:57;15.40;99.90
9305;DHT22;4690;52.422;13.486;2023-09-08T03:55:23;15.40;99.90
9305;DHT22;4690;52.422;13.486;2023-09-08T03:57:49;15.40;99.90
9305;DHT22;4690;52.422;13.486;2023-09-08T04:00:15;15.40;99.90
9305;DHT22;4690;52.422;13.486;2023-09-08T04:02:46;15.40;99.90
9305;DHT22;4690;52.422;13.486;2023-09-08T04:05:11;15.30;99.90
9305;DHT22;4690;52.422;13.486;2023-09-08T04:07:37;15.30;99.90
9305;DHT22;4690;52.422;13.486;2023-09-08T04:10:03;15.20;99.90
9305;DHT22;4690;52.422;13.486;2023-09-08T04:12:29;15.20;99.90
9305;DHT22;4690;52.422;13.486;2023-09-08T04:14:55;15.20;99.90
9305;DHT22;4690;52.422;13.486;2023-09-08T04:17:21;15.20;99.90
9305;DHT22;4690;52.422;13.486;2023-09-08T04:19:46;15.20;99.90
9305;DHT22;4690;52.422;13.486;2023-09-08T04:22:12;15.20;99.90
9305;DHT22;4690;52.422;13.486;2023-09-08T04:24:38;15.20;99.90
9305;DHT22;4690;52.422;13.486;2023-09-08T04:27:04;15.20;99.90
9305;DHT22;4690;52.422;13.486;2023-09-08T04:29:30;15.20;99.90
9305;DHT22;4690;52.422;13.486;2023-09-08T04:31:55;15.20;99.90
9305;DHT22;4690;52.422;13.486;2023-09-08T04:34:21;15.20;99.90
9305;DHT22;4690;52.422;13.486;2023-09-08T04:36:47;15.20;99.90
9305;DHT22;4690;52.422;13.486;2023-09-08T04:39:12;15.20;99.90
9305;DHT22;4690;52.422;13.486;2023-09-08T04:41:40;15.10;99.90
9305;DHT22;4690;52.422;13.486;2023-09-08T04:44:06;15.10;99.90
9305;DHT22;4690;52.422;13.486;2023-09-08T04:46:32;15.10;99.90
9305;DHT22;4690;52.422;13.486;2023-09-08T04:48:58;15.10;99.90
9305;DHT22;4690;52.422;13.486;2023-09-08T04:51:24;15.10;99.90
9305;DHT22;4690;52.422;13.486;2023-09-08T04:53:50;15.10;99.90
9305;DHT22;4690;52.422;13.486;2023-09-08T04:56:16;15.10;99.90
9305;DHT22;4690;52.422;13.486;2023-09-08T04:58:41;15.00;99.90
9305;DHT22;4690;52.422;13.486;2023-09-08T05:01:07;15.00;99.90
9305;DHT22;4690;52.422;13.486;2023-09-08T05:03:33;15.10;99.90
9305;DHT22;4690;52.422;13.486;2023-09-08T05:05:59;15.10;99.90
9305;DHT22;4690;52.422;13.486;2023-09-08T05:08:26;15.20;99.90
9305;DHT22;4690;52.422;13.486;2023-09-08T05:10:52;15.20;99.90
9305;DHT22;4690;52.422;13.486;2023-09-08T05:13:18;15.30;99.90
9305;DHT22;4690;52.422;13.486;2023-09-08T05:15:44;15.40;99.90
9305;DHT22;4690;52.422;13.486;2023-09-08T05:18:13;15.40;99.90
9305;DHT22;4690;52.422;13.486;2023-09-08T05:20:39;15.50;99.90
9305;DHT22;4690;52.422;13.486;2023-09-08T05:23:05;15.50;99.90
9305;DHT22;4690;52.422;13.486;2023-09-08T05:25:31;15.60;99.90
9305;DHT22;4690;52.422;13.486;2023-09-08T05:27:56;15.70;99.90
9305;DHT22;4690;52.422;13.486;2023-09-08T05:30:22;15.70;99.90
9305;DHT22;4690;52.422;13.486;2023-09-08T05:32:48;15.80;99.90
9305;DHT22;4690;52.422;13.486;2023-09-08T05:35:14;15.90;99.90
9305;DHT22;4690;52.422;13.486;2023-09-08T05:37:40;15.90;99.90
9305;DHT22;4690;52.422;13.486;2023-09-08T05:40:06;15.90;99.90
9305;DHT22;4690;52.422;13.486;2023-09-08T05:42:32;15.90;99.90
9305;DHT22;4690;52.422;13.486;2023-09-08T05:44:58;16.10;99.90
9305;DHT22;4690;52.422;13.486;2023-09-08T05:47:23;16.20;99.90
9305;DHT22;4690;52.422;13.486;2023-09-08T05:49:49;16.30;99.90
9305;DHT22;4690;52.422;13.486;2023-09-08T05:52:15;16.40;99.90
9305;DHT22;4690;52.422;13.486;2023-09-08T05:54:40;16.50;99.90
9305;DHT22;4690;52.422;13.486;2023-09-08T05:57:06;16.70;99.90
9305;DHT22;4690;52.422;13.486;2023-09-08T05:59:32;16.80;99.90
9305;DHT22;4690;52.422;13.486;2023-09-08T06:01:58;16.90;99.90
9305;DHT22;4690;52.422;13.486;2023-09-08T06:04:23;17.00;99.90
9305;DHT22;4690;52.422;13.486;2023-09-08T06:06:49;17.10;99.90
9305;DHT22;4690;52.422;13.486;2023-09-08T06:09:15;17.30;99.90
9305;DHT22;4690;52.422;13.486;2023-09-08T06:11:42;17.50;99.90
9305;DHT22;4690;52.422;13.486;2023-09-08T06:14:07;17.60;99.90
9305;DHT22;4690;52.422;13.486;2023-09-08T06:16:33;17.70;99.90
9305;DHT22;4690;52.422;13.486;2023-09-08T06:19:01;17.90;99.90
9305;DHT22;4690;52.422;13.486;2023-09-08T06:21:28;17.90;99.90
9305;DHT22;4690;52.422;13.486;2023-09-08T06:23:54;18.10;99.90
9305;DHT22;4690;52.422;13.486;2023-09-08T06:26:20;18.20;99.90
9305;DHT22;4690;52.422;13.486;2023-09-08T06:28:45;18.40;99.90
9305;DHT22;4690;52.422;13.486;2023-09-08T06:31:11;18.60;99.90
9305;DHT22;4690;52.422;13.486;2023-09-08T06:33:37;18.80;99.90
9305;DHT22;4690;52.422;13.486;2023-09-08T06:36:03;18.90;99.90
9305;DHT22;4690;52.422;13.486;2023-09-08T06:38:28;19.00;99.90
9305;DHT22;4690;52.422;13.486;2023-09-08T06:40:57;19.10;99.90
9305;DHT22;4690;52.422;13.486;2023-09-08T06:43:22;19.30;99.90
9305;DHT22;4690;52.422;13.486;2023-09-08T06:45:48;19.40;99.90
9305;DHT22;4690;52.422;13.486;2023-09-08T06:48:15;19.60;99.90
9305;DHT22;4690;52.422;13.486;2023-09-08T06:50:41;19.70;99.90
9305;DHT22;4690;52.422;13.486;2023-09-08T06:53:07;19.80;99.90
9305;DHT22;4690;52.422;13.486;2023-09-08T06:55:33;20.00;99.90
9305;DHT22;4690;52.422;13.486;2023-09-08T06:57:58;20.10;99.90
9305;DHT22;4690;52.422;13.486;2023-09-08T07:00:24;20.20;99.90
9305;DHT22;4690;52.422;13.486;2023-09-08T07:02:50;20.20;99.90
9305;DHT22;4690;52.422;13.486;2023-09-08T07:05:16;20.30;99.90
9305;DHT22;4690;52.422;13.486;2023-09-08T07:07:42;20.50;99.90
9305;DHT22;4690;52.422;13.486;2023-09-08T07:10:08;20.50;99.90
9305;DHT22;4690;52.422;13.486;2023-09-08T07:12:35;20.60;99.90
9305;DHT22;4690;52.422;13.486;2023-09-08T07:15:00;20.70;99.90
9305;DHT22;4690;52.422;13.486;2023-09-08T07:17:26;20.90;99.90
9305;DHT22;4690;52.422;13.486;2023-09-08T07:19:52;21.00;99.90
9305;DHT22;4690;52.422;13.486;2023-09-08T07:22:18;21.20;99.90
9305;DHT22;4690;52.422;13.486;2023-09-08T07:24:44;21.30;99.90
9305;DHT22;4690;52.422;13.486;2023-09-08T07:27:10;21.40;99.90
9305;DHT22;4690;52.422;13.486;2023-09-08T07:29:40;21.60;99.90
9305;DHT22;4690;52.422;13.486;2023-09-08T07:32:07;21.70;99.90
9305;DHT22;4690;52.422;13.486;2023-09-08T07:34:33;21.70;99.90
9305;DHT22;4690;52.422;13.486;2023-09-08T07:37:00;21.80;99.90
9305;DHT22;4690;52.422;13.486;2023-09-08T07:39:26;21.80;99.90
9305;DHT22;4690;52.422;13.486;2023-09-08T07:41:52;22.10;99.90
9305;DHT22;4690;52.422;13.486;2023-09-08T07:44:18;22.10;99.90
9305;DHT22;4690;52.422;13.486;2023-09-08T07:46:44;22.30;99.90
9305;DHT22;4690;52.422;13.486;2023-09-08T07:49:11;22.30;99.90
9305;DHT22;4690;52.422;13.486;2023-09-08T07:51:37;22.50;99.90
9305;DHT22;4690;52.422;13.486;2023-09-08T07:54:03;22.70;99.90
9305;DHT22;4690;52.422;13.486;2023-09-08T07:56:29;22.90;99.90
9305;DHT22;4690;52.422;13.486;2023-09-08T07:58:55;22.80;99.90
9305;DHT22;4690;52.422;13.486;2023-09-08T08:01:21;23.00;99.90
9305;DHT22;4690;52.422;13.486;2023-09-08T08:03:47;23.10;99.90
9305;DHT22;4690;52.422;13.486;2023-09-08T08:06:13;23.30;99.90
9305;DHT22;4690;52.422;13.486;2023-09-08T08:08:39;23.50;99.90
9305;DHT22;4690;52.422;13.486;2023-09-08T08:11:13;23.60;99.90
9305;DHT22;4690;52.422;13.486;2023-09-08T08:13:41;23.60;99.90
9305;DHT22;4690;52.422;13.486;2023-09-08T08:16:07;23.70;99.90
9305;DHT22;4690;52.422;13.486;2023-09-08T08:18:33;23.90;99.90
9305;DHT22;4690;52.422;13.486;2023-09-08T08:20:58;23.90;99.90
9305;DHT22;4690;52.422;13.486;2023-09-08T08:23:26;24.10;99.90
9305;DHT22;4690;52.422;13.486;2023-09-08T08:25:52;24.20;99.90
9305;DHT22;4690;52.422;13.486;2023-09-08T08:28:17;24.20;99.90
9305;DHT22;4690;52.422;13.486;2023-09-08T08:30:43;24.30;99.90
9305;DHT22;4690;52.422;13.486;2023-09-08T08:33:09;24.30;99.90
9305;DHT22;4690;52.422;13.486;2023-09-08T08:35:36;24.20;99.90
9305;DHT22;4690;52.422;13.486;2023-09-08T08:38:01;24.30;99.90
9305;DHT22;4690;52.422;13.486;2023-09-08T08:40:27;24.50;99.90
9305;DHT22;4690;52.422;13.486;2023-09-08T08:42:57;24.60;99.90
9305;DHT22;4690;52.422;13.486;2023-09-08T08:45:27;24.60;99.90
9305;DHT22;4690;52.422;13.486;2023-09-08T08:47:55;24.70;99.90
9305;DHT22;4690;52.422;13.486;2023-09-08T08:50:25;24.80;99.90
9305;DHT22;4690;52.422;13.486;2023-09-08T08:52:54;25.00;99.90
9305;DHT22;4690;52.422;13.486;2023-09-08T08:55:19;24.90;99.90
9305;DHT22;4690;52.422;13.486;2023-09-08T08:57:49;25.10;99.90
9305;DHT22;4690;52.422;13.486;2023-09-08T09:00:16;25.00;99.90
9305;DHT22;4690;52.422;13.486;2023-09-08T09:02:48;25.20;99.90
9305;DHT22;4690;52.422;13.486;2023-09-08T09:05:17;25.10;99.90
9305;DHT22;4690;52.422;13.486;2023-09-08T09:07:44;25.20;99.90
9305;DHT22;4690;52.422;13.486;2023-09-08T09:10:11;25.20;99.90
9305;DHT22;4690;52.422;13.486;2023-09-08T09:12:39;25.30;99.90
9305;DHT22;4690;52.422;13.486;2023-09-08T09:15:12;25.40;99.90
9305;DHT22;4690;52.422;13.486;2023-09-08T09:17:38;25.60;99.90
9305;DHT22;4690;52.422;13.486;2023-09-08T09:20:17;25.60;99.90
9305;DHT22;4690;52.422;13.486;2023-09-08T09:22:47;25.70;99.90
9305;DHT22;4690;52.422;13.486;2023-09-08T09:25:28;25.80;99.90
9305;DHT22;4690;52.422;13.486;2023-09-08T09:28:05;25.90;99.90
9305;DHT22;4690;52.422;13.486;2023-09-08T09:30:51;25.90;99.90
9305;DHT22;4690;52.422;13.486;2023-09-08T09:33:20;26.00;99.90
9305;DHT22;4690;52.422;13.486;2023-09-08T09:35:48;26.10;99.90
9305;DHT22;4690;52.422;13.486;2023-09-08T09:38:20;26.10;99.90
9305;DHT22;4690;52.422;13.486;2023-09-08T09:40:47;26.10;99.90
9305;DHT22;4690;52.422;13.486;2023-09-08T09:43:20;26.00;99.90
9305;DHT22;4690;52.422;13.486;2023-09-08T09:45:48;26.10;99.90
9305;DHT22;4690;52.422;13.486;2023-09-08T09:48:14;26.10;99.90
9305;DHT22;4690;52.422;13.486;2023-09-08T09:50:41;26.20;99.90
9305;DHT22;4690;52.422;13.486;2023-09-08T09:53:15;26.30;99.90
9305;DHT22;4690;52.422;13.486;2023-09-08T09:55:43;26.60;99.90
9305;DHT22;4690;52.422;13.486;2023-09-08T09:58:11;26.60;99.90
9305;DHT22;4690;52.422;13.486;2023-09-08T10:00:38;26.60;99.90
9305;DHT22;4690;52.422;13.486;2023-09-08T10:03:06;26.60;99.90
9305;DHT22;4690;52.422;13.486;2023-09-08T10:05:33;26.60;99.90
9305;DHT22;4690;52.422;13.486;2023-09-08T10:07:59;26.60;99.90
9305;DHT22;4690;52.422;13.486;2023-09-08T10:10:27;26.70;99.90
9305;DHT22;4690;52.422;13.486;2023-09-08T10:12:58;26.80;99.90
9305;DHT22;4690;52.422;13.486;2023-09-08T10:15:29;26.70;99.90
9305;DHT22;4690;52.422;13.486;2023-09-08T10:17:56;26.90;99.90
9305;DHT22;4690;52.422;13.486;2023-09-08T10:20:29;26.90;99.90
9305;DHT22;4690;52.422;13.486;2023-09-08T10:23:07;27.10;99.90
9305;DHT22;4690;52.422;13.486;2023-09-08T10:26:01;27.00;99.90
9305;DHT22;4690;52.422;13.486;2023-09-08T10:28:34;27.10;99.90
9305;DHT22;4690;52.422;13.486;2023-09-08T10:31:01;27.20;99.90
9305;DHT22;4690;52.422;13.486;2023-09-08T10:33:29;27.20;99.90
9305;DHT22;4690;52.422;13.486;2023-09-08T10:35:57;27.30;99.90
9305;DHT22;4690;52.422;13.486;2023-09-08T10:38:24;27.30;99.90
9305;DHT22;4690;52.422;13.486;2023-09-08T10:40:52;27.60;99.90
9305;DHT22;4690;52.422;13.486;2023-09-08T10:43:19;27.60;99.90
9305;DHT22;4690;52.422;13.486;2023-09-08T10:45:48;27.50;99.90
9305;DHT22;4690;52.422;13.486;2023-09-08T10:48:15;27.60;99.90
9305;DHT22;4690;52.422;13.486;2023-09-08T10:50:41;27.50;99.90
9305;DHT22;4690;52.422;13.486;2023-09-08T10:53:18;27.70;99.90
9305;DHT22;4690;52.422;13.486;2023-09-08T10:55:49;27.70;99.90
9305;DHT22;4690;52.422;13.486;2023-09-08T11:01:02;27.70;99.90
9305;DHT22;4690;52.422;13.486;2023-09-08T11:06:11;27.90;99.90
9305;DHT22;4690;52.422;13.486;2023-09-08T11:08:40;27.90;99.90
9305;DHT22;4690;52.422;13.486;2023-09-08T11:11:11;27.80;99.90
9305;DHT22;4690;52.422;13.486;2023-09-08T11:13:38;27.80;99.90
9305;DHT22;4690;52.422;13.486;2023-09-08T11:16:11;27.90;99.90
9305;DHT22;4690;52.422;13.486;2023-09-08T11:18:37;28.00;99.90
9305;DHT22;4690;52.422;13.486;2023-09-08T11:21:09;28.10;99.90
9305;DHT22;4690;52.422;13.486;2023-09-08T11:23:36;28.20;99.90
9305;DHT22;4690;52.422;13.486;2023-09-08T11:26:03;28.10;99.90
9305;DHT22;4690;52.422;13.486;2023-09-08T11:28:29;28.00;99.90
9305;DHT22;4690;52.422;13.486;2023-09-08T11:30:55;28.30;99.90
9305;DHT22;4690;52.422;13.486;2023-09-08T11:33:22;28.30;99.90
9305;DHT22;4690;52.422;13.486;2023-09-08T11:35:52;28.30;99.90
9305;DHT22;4690;52.422;13.486;2023-09-08T11:38:27;28.30;99.90
9305;DHT22;4690;52.422;13.486;2023-09-08T11:40:57;28.30;99.90
9305;DHT22;4690;52.422;13.486;2023-09-08T11:43:25;28.50;99.90
9305;DHT22;4690;52.422;13.486;2023-09-08T11:45:51;28.50;99.90
9305;DHT22;4690;52.422;13.486;2023-09-08T11:48:17;28.60;99.90
9305;DHT22;4690;52.422;13.486;2023-09-08T11:50:44;28.40;99.90
9305;DHT22;4690;52.422;13.486;2023-09-08T11:53:10;28.30;99.90
9305;DHT22;4690;52.422;13.486;2023-09-08T11:55:36;28.30;99.90
9305;DHT22;4690;52.422;13.486;2023-09-08T11:58:02;28.30;99.90
9305;DHT22;4690;52.422;13.486;2023-09-08T12:00:29;28.40;99.90
9305;DHT22;4690;52.422;13.486;2023-09-08T12:02:58;28.30;99.90
9305;DHT22;4690;52.422;13.486;2023-09-08T12:05:38;28.30;99.90
9305;DHT22;4690;52.422;13.486;2023-09-08T12:08:05;28.30;99.90
9305;DHT22;4690;52.422;13.486;2023-09-08T12:10:38;28.50;99.90
9305;DHT22;4690;52.422;13.486;2023-09-08T12:13:05;28.70;99.90
9305;DHT22;4690;52.422;13.486;2023-09-08T12:15:36;28.70;99.90
9305;DHT22;4690;52.422;13.486;2023-09-08T12:18:11;28.60;99.90
9305;DHT22;4690;52.422;13.486;2023-09-08T12:20:39;28.70;99.90
9305;DHT22;4690;52.422;13.486;2023-09-08T12:23:19;28.60;99.90
9305;DHT22;4690;52.422;13.486;2023-09-08T12:25:47;28.70;99.90
9305;DHT22;4690;52.422;13.486;2023-09-08T12:28:16;28.70;99.90
9305;DHT22;4690;52.422;13.486;2023-09-08T12:30:43;28.80;99.90
9305;DHT22;4690;52.422;13.486;2023-09-08T12:33:09;28.70;99.90
9305;DHT22;4690;52.422;13.486;2023-09-08T12:35:36;28.80;99.90
9305;DHT22;4690;52.422;13.486;2023-09-08T12:38:05;28.70;99.90
9305;DHT22;4690;52.422;13.486;2023-09-08T12:40:34;28.70;99.90
9305;DHT22;4690;52.422;13.486;2023-09-08T12:43:03;28.70;99.90
9305;DHT22;4690;52.422;13.486;2023-09-08T12:45:30;28.60;99.90
9305;DHT22;4690;52.422;13.486;2023-09-08T12:47:58;28.60;99.90
9305;DHT22;4690;52.422;13.486;2023-09-08T12:50:27;28.80;99.90
9305;DHT22;4690;52.422;13.486;2023-09-08T12:52:53;28.80;99.90
9305;DHT22;4690;52.422;13.486;2023-09-08T12:55:19;28.80;99.90
9305;DHT22;4690;52.422;13.486;2023-09-08T12:57:45;28.80;99.90
9305;DHT22;4690;52.422;13.486;2023-09-08T13:00:12;28.80;99.90
9305;DHT22;4690;52.422;13.486;2023-09-08T13:02:40;28.90;99.90
9305;DHT22;4690;52.422;13.486;2023-09-08T13:05:07;28.90;99.90
9305;DHT22;4690;52.422;13.486;2023-09-08T13:07:33;29.00;99.90
9305;DHT22;4690;52.422;13.486;2023-09-08T13:09:59;29.00;99.90
9305;DHT22;4690;52.422;13.486;2023-09-08T13:12:25;28.90;99.90
9305;DHT22;4690;52.422;13.486;2023-09-08T13:14:51;28.90;99.90
9305;DHT22;4690;52.422;13.486;2023-09-08T13:17:17;29.00;99.90
9305;DHT22;4690;52.422;13.486;2023-09-08T13:19:44;29.10;99.90
9305;DHT22;4690;52.422;13.486;2023-09-08T13:22:10;29.00;99.90
9305;DHT22;4690;52.422;13.486;2023-09-08T13:24:37;29.10;99.90
9305;DHT22;4690;52.422;13.486;2023-09-08T13:27:03;29.20;99.90
9305;DHT22;4690;52.422;13.486;2023-09-08T13:29:29;29.30;99.90
9305;DHT22;4690;52.422;13.486;2023-09-08T13:31:55;29.20;99.90
9305;DHT22;4690;52.422;13.486;2023-09-08T13:34:21;29.10;99.90
9305;DHT22;4690;52.422;13.486;2023-09-08T13:36:47;29.10;99.90
9305;DHT22;4690;52.422;13.486;2023-09-08T13:39:14;29.10;99.90
9305;DHT22;4690;52.422;13.486;2023-09-08T13:42:00;29.00;99.90
9305;DHT22;4690;52.422;13.486;2023-09-08T13:44:26;29.10;99.90
9305;DHT22;4690;52.422;13.486;2023-09-08T13:46:53;29.20;99.90
9305;DHT22;4690;52.422;13.486;2023-09-08T13:49:20;29.30;99.90
9305;DHT22;4690;52.422;13.486;2023-09-08T13:51:47;29.20;99.90
9305;DHT22;4690;52.422;13.486;2023-09-08T13:54:14;29.10;99.90
9305;DHT22;4690;52.422;13.486;2023-09-08T13:56:41;29.10;99.90
9305;DHT22;4690;52.422;13.486;2023-09-08T13:59:08;29.00;99.90
9305;DHT22;4690;52.422;13.486;2023-09-08T14:01:35;29.00;99.90
9305;DHT22;4690;52.422;13.486;2023-09-08T14:04:02;28.80;99.90
9305;DHT22;4690;52.422;13.486;2023-09-08T14:06:34;28.90;99.90
9305;DHT22;4690;52.422;13.486;2023-09-08T14:09:00;28.90;99.90
9305;DHT22;4690;52.422;13.486;2023-09-08T14:11:26;28.90;99.90
9305;DHT22;4690;52.422;13.486;2023-09-08T14:13:52;29.00;99.90
9305;DHT22;4690;52.422;13.486;2023-09-08T14:16:18;28.90;99.90
9305;DHT22;4690;52.422;13.486;2023-09-08T14:18:44;28.90;99.90
9305;DHT22;4690;52.422;13.486;2023-09-08T14:21:11;28.90;99.90
9305;DHT22;4690;52.422;13.486;2023-09-08T14:23:36;28.90;99.90
9305;DHT22;4690;52.422;13.486;2023-09-08T14:26:06;28.80;99.90
9305;DHT22;4690;52.422;13.486;2023-09-08T14:28:32;28.80;99.90
9305;DHT22;4690;52.422;13.486;2023-09-08T14:30:59;28.80;99.90
9305;DHT22;4690;52.422;13.486;2023-09-08T14:33:25;28.80;99.90
9305;DHT22;4690;52.422;13.486;2023-09-08T14:35:51;28.80;99.90
9305;DHT22;4690;52.422;13.486;2023-09-08T14:38:20;28.80;99.90
9305;DHT22;4690;52.422;13.486;2023-09-08T14:40:57;28.90;99.90
9305;DHT22;4690;52.422;13.486;2023-09-08T14:43:25;28.80;99.90
9305;DHT22;4690;52.422;13.486;2023-09-08T14:45:52;28.80;99.90
9305;DHT22;4690;52.422;13.486;2023-09-08T14:48:19;28.80;99.90
9305;DHT22;4690;52.422;13.486;2023-09-08T14:50:45;28.70;99.90
9305;DHT22;4690;52.422;13.486;2023-09-08T14:53:12;28.70;99.90
9305;DHT22;4690;52.422;13.486;2023-09-08T14:55:37;28.70;99.90
9305;DHT22;4690;52.422;13.486;2023-09-08T14:58:04;28.60;99.90
9305;DHT22;4690;52.422;13.486;2023-09-08T15:00:30;28.60;99.90
9305;DHT22;4690;52.422;13.486;2023-09-08T15:02:55;28.70;99.90
9305;DHT22;4690;52.422;13.486;2023-09-08T15:05:21;28.60;99.90
9305;DHT22;4690;52.422;13.486;2023-09-08T15:07:47;28.60;99.90
9305;DHT22;4690;52.422;13.486;2023-09-08T15:10:13;28.60;99.90
9305;DHT22;4690;52.422;13.486;2023-09-08T15:12:38;28.60;99.90
9305;DHT22;4690;52.422;13.486;2023-09-08T15:15:04;28.50;99.90
9305;DHT22;4690;52.422;13.486;2023-09-08T15:17:31;28.60;99.90
9305;DHT22;4690;52.422;13.486;2023-09-08T15:19:56;28.60;99.90
9305;DHT22;4690;52.422;13.486;2023-09-08T15:22:24;28.60;99.90
9305;DHT22;4690;52.422;13.486;2023-09-08T15:24:49;28.60;99.90
9305;DHT22;4690;52.422;13.486;2023-09-08T15:27:15;28.60;99.90
9305;DHT22;4690;52.422;13.486;2023-09-08T15:29:41;28.60;99.90
9305;DHT22;4690;52.422;13.486;2023-09-08T15:32:07;28.60;99.90
9305;DHT22;4690;52.422;13.486;2023-09-08T15:34:33;28.60;99.90
9305;DHT22;4690;52.422;13.486;2023-09-08T15:37:00;28.60;99.90
9305;DHT22;4690;52.422;13.486;2023-09-08T15:39:26;28.50;99.90
9305;DHT22;4690;52.422;13.486;2023-09-08T15:41:52;28.60;99.90
9305;DHT22;4690;52.422;13.486;2023-09-08T15:44:18;28.60;99.90
9305;DHT22;4690;52.422;13.486;2023-09-08T15:46:44;28.60;99.90
9305;DHT22;4690;52.422;13.486;2023-09-08T15:49:11;28.50;99.90
9305;DHT22;4690;52.422;13.486;2023-09-08T15:51:37;28.50;99.90
9305;DHT22;4690;52.422;13.486;2023-09-08T15:54:03;28.50;99.90
9305;DHT22;4690;52.422;13.486;2023-09-08T15:56:29;28.40;99.90
9305;DHT22;4690;52.422;13.486;2023-09-08T15:58:55;28.30;99.90
9305;DHT22;4690;52.422;13.486;2023-09-08T16:01:23;28.30;99.90
9305;DHT22;4690;52.422;13.486;2023-09-08T16:03:49;28.30;99.90
9305;DHT22;4690;52.422;13.486;2023-09-08T16:06:14;28.30;99.90